Time;durP1;ratioP1;P1;durP2;ratioP2;P2;SDS_P1;SDS_P2;PMS_P1;PMS_P2;Temp;Humidity;BMP_temperature;BMP_pressure;BME280_temperature;BME280_humidity;BME280_pressure;Samples;Min_cycle;Max_cycle;Signal;HPM_P1;HPM_P2
2022/11/05 00:10:50;;;;;;;41.30;20.80;;;;;;;9.97;100.00;99324.33;102951;1284;24215;-63
2022/11/05 00:19:08;;;;;;;36.60;19.70;;;;;;;9.89;100.00;99345.11;102846;1282;23223;-60
2022/11/05 00:27:19;;;;;;;32.00;16.00;;;;;;;9.79;100.00;99358.61;102931;1277;22461;-60
2022/11/05 00:29:51;;;;;;;32.40;16.10;;;;;;;9.76;100.00;99357.67;103413;1291;22710;-62
2022/11/05 00:32:22;;;;;;;31.40;15.10;;;;;;;9.73;100.00;99361.96;103382;1278;26498;-61
2022/11/05 00:34:55;;;;;;;34.10;15.20;;;;;;;9.71;100.00;99361.89;103317;1279;22513;-60
2022/11/05 00:37:28;;;;;;;28.40;13.00;;;;;;;9.68;100.00;99371.20;103446;1278;22587;-59
2022/11/05 00:40:00;;;;;;;30.30;14.70;;;;;;;9.64;100.00;99370.65;103506;1303;22481;-60
2022/11/05 00:45:20;;;;;;;31.70;15.00;;;;;;;9.57;100.00;99374.04;103206;1277;22477;-61
2022/11/05 00:50:42;;;;;;;31.20;14.40;;;;;;;9.50;100.00;99378.52;103421;1277;22569;-60
2022/11/05 00:53:13;;;;;;;30.80;13.40;;;;;;;9.47;100.00;99388.47;103473;1302;25504;-61
2022/11/05 00:55:46;;;;;;;29.60;13.60;;;;;;;9.45;100.00;99383.13;103495;1279;22482;-60
2022/11/05 00:58:19;;;;;;;31.40;14.70;;;;;;;9.43;100.00;99387.61;103215;1286;24448;-60
2022/11/05 01:00:53;;;;;;;31.10;14.60;;;;;;;9.41;100.00;99396.16;103443;1300;22477;-61
2022/11/05 01:03:27;;;;;;;27.90;12.60;;;;;;;9.40;100.00;99401.17;103217;1278;22463;-60
2022/11/05 01:06:05;;;;;;;30.20;13.60;;;;;;;9.39;100.00;99406.02;103364;1279;24516;-60
2022/11/05 01:08:37;;;;;;;27.80;13.10;;;;;;;9.37;100.00;99408.69;103311;1279;23094;-60
2022/11/05 01:11:31;;;;;;;23.80;11.10;;;;;;;9.36;100.00;99411.77;103225;1278;26493;-60
2022/11/05 01:14:06;;;;;;;24.00;10.00;;;;;;;9.35;100.00;99410.94;103294;1303;22455;-61
2022/11/05 01:16:39;;;;;;;22.40;10.20;;;;;;;9.34;100.00;99422.23;103331;1303;22523;-61
2022/11/05 01:19:12;;;;;;;24.10;10.20;;;;;;;9.34;100.00;99430.22;103233;1277;24370;-60
2022/11/05 01:21:45;;;;;;;20.60;8.80;;;;;;;9.34;100.00;99437.06;103473;1298;22463;-60
2022/11/05 01:24:18;;;;;;;19.20;7.70;;;;;;;9.34;100.00;99436.55;103316;1302;22498;-60
2022/11/05 01:26:49;;;;;;;18.20;6.70;;;;;;;9.33;100.00;99433.91;103323;1279;22456;-60
2022/11/05 01:29:21;;;;;;;19.60;7.30;;;;;;;9.33;100.00;99434.98;103360;1271;22603;-62
2022/11/05 01:31:53;;;;;;;19.10;7.50;;;;;;;9.32;100.00;99437.09;103470;1301;25402;-60
2022/11/05 01:34:25;;;;;;;11.10;4.10;;;;;;;9.31;100.00;99434.44;103275;1277;24494;-59
2022/11/05 01:36:56;;;;;;;12.20;4.40;;;;;;;9.30;100.00;99439.19;103486;1271;24459;-60
2022/11/05 01:39:28;;;;;;;7.60;1.80;;;;;;;9.30;100.00;99445.58;103240;1278;25540;-58
2022/11/05 01:41:59;;;;;;;4.40;1.30;;;;;;;9.26;100.00;99447.15;103280;1278;22468;-59
2022/11/05 01:44:54;;;;;;;3.80;1.30;;;;;;;9.21;100.00;99451.91;103294;1301;23612;-59
2022/11/05 01:47:43;;;;;;;3.10;1.10;;;;;;;9.16;100.00;99454.77;103424;1279;26518;-59
2022/11/05 01:50:35;;;;;;;4.00;1.40;;;;;;;9.09;100.00;99459.63;103307;1278;25363;-58
2022/11/05 01:53:13;;;;;;;4.80;1.10;;;;;;;9.04;100.00;99458.69;103265;1278;22699;-60
2022/11/05 01:55:49;;;;;;;3.40;0.80;;;;;;;9.00;100.00;99459.08;103351;1278;22490;-59
2022/11/05 01:58:26;;;;;;;3.90;1.20;;;;;;;8.96;100.00;99462.59;103411;1298;22847;-60
2022/11/05 02:00:59;;;;;;;3.20;0.80;;;;;;;8.92;100.00;99469.66;103413;1303;24279;-59
2022/11/05 02:03:31;;;;;;;4.40;1.10;;;;;;;8.87;100.00;99470.83;103433;1278;24441;-60
2022/11/05 02:06:03;;;;;;;3.80;1.10;;;;;;;8.84;100.00;99471.24;103478;1278;22483;-59
2022/11/05 02:08:49;;;;;;;4.70;1.10;;;;;;;8.81;100.00;99475.02;103323;1279;25268;-59
2022/11/05 02:11:21;;;;;;;4.70;1.20;;;;;;;8.78;100.00;99475.66;103431;1279;24340;-58
2022/11/05 02:13:53;;;;;;;3.80;1.00;;;;;;;8.77;100.00;99473.05;103383;1271;22577;-60
2022/11/05 02:16:37;;;;;;;4.10;1.20;;;;;;;8.74;100.00;99470.39;103302;1279;24267;-60
2022/11/05 02:19:33;;;;;;;4.60;1.50;;;;;;;8.74;100.00;99477.81;103452;1303;24267;-57
2022/11/05 02:22:34;;;;;;;4.40;1.10;;;;;;;8.73;100.00;99482.17;103588;1293;25285;-58
2022/11/05 02:25:26;;;;;;;4.40;1.50;;;;;;;8.72;100.00;99496.77;103495;1279;22583;-59
2022/11/05 02:28:26;;;;;;;4.50;1.40;;;;;;;8.72;100.00;99504.46;103448;1271;22506;-60
2022/11/05 02:31:05;;;;;;;4.30;1.40;;;;;;;8.71;100.00;99512.99;103377;1302;24314;-60
2022/11/05 02:33:44;;;;;;;5.50;1.60;;;;;;;8.70;100.00;99518.66;103328;1279;22704;-61
2022/11/05 02:36:31;;;;;;;5.50;1.50;;;;;;;8.69;100.00;99525.61;103408;1279;22693;-61
2022/11/05 02:39:13;;;;;;;4.70;1.40;;;;;;;8.69;100.00;99524.75;103401;1288;22478;-60
2022/11/05 02:41:55;;;;;;;6.20;1.40;;;;;;;8.68;100.00;99534.27;103373;1302;22459;-60
2022/11/05 02:44:35;;;;;;;5.00;1.30;;;;;;;8.69;100.00;99540.70;103388;1279;22456;-60
2022/11/05 02:47:07;;;;;;;;;;;;;;;8.68;100.00;99543.52;103572;1278;22431;-58
2022/11/05 02:49:48;;;;;;;5.60;1.40;;;;;;;8.67;100.00;99554.17;103420;1295;25333;-63
2022/11/05 02:52:25;;;;;;;4.10;1.20;;;;;;;8.65;100.00;99559.55;103321;1287;24333;-60
2022/11/05 02:55:03;;;;;;;3.50;1.30;;;;;;;8.65;100.00;99558.75;103256;1302;25269;-60
2022/11/05 02:57:36;;;;;;;3.70;1.30;;;;;;;8.64;100.00;99560.51;103182;1303;22582;-59
2022/11/05 03:00:23;;;;;;;4.10;0.90;;;;;;;8.64;100.00;99563.77;103227;1296;22479;-60
2022/11/05 03:02:55;;;;;;;8.90;1.40;;;;;;;8.64;100.00;99572.77;103315;1278;22578;-59
2022/11/05 03:05:34;;;;;;;5.00;1.40;;;;;;;8.63;100.00;99578.94;103378;1302;25297;-59
2022/11/05 03:08:12;;;;;;;4.00;1.30;;;;;;;8.62;100.00;99579.79;103375;1300;22953;-61
2022/11/05 03:10:52;;;;;;;4.40;1.40;;;;;;;8.62;100.00;99576.60;103213;1302;22474;-60
2022/11/05 03:13:34;;;;;;;6.30;1.60;;;;;;;8.61;100.00;99576.17;103484;1294;22472;-60
2022/11/05 03:16:13;;;;;;;6.20;1.40;;;;;;;8.60;100.00;99577.27;103490;1294;24341;-59
2022/11/05 03:18:51;;;;;;;7.80;1.40;;;;;;;8.59;100.00;99581.70;103393;1295;23184;-60
2022/11/05 03:21:30;;;;;;;5.60;1.40;;;;;;;8.59;100.00;99588.78;103366;1277;22455;-60
2022/11/05 03:24:09;;;;;;;3.40;1.10;;;;;;;8.58;100.00;99594.55;103257;1278;23212;-60
2022/11/05 03:26:47;;;;;;;4.30;1.10;;;;;;;8.57;100.00;99604.85;103419;1271;24317;-60
2022/11/05 03:29:23;;;;;;;4.10;1.20;;;;;;;8.56;100.00;99610.80;103479;1278;22689;-60
2022/11/05 03:31:58;;;;;;;2.80;0.90;;;;;;;8.55;100.00;99615.04;103406;1301;22668;-59
2022/11/05 03:34:36;;;;;;;5.40;1.20;;;;;;;8.54;100.00;99620.11;103233;1271;22473;-59
2022/11/05 03:37:10;;;;;;;5.10;1.20;;;;;;;8.53;100.00;99621.01;103230;1302;24414;-60
2022/11/05 03:39:46;;;;;;;4.20;1.00;;;;;;;8.51;100.00;99629.84;103404;1302;25298;-62
2022/11/05 03:42:21;;;;;;;4.40;1.00;;;;;;;8.50;100.00;99633.71;103409;1278;25456;-62
2022/11/05 03:44:57;;;;;;;2.60;0.80;;;;;;;8.50;100.00;99643.02;103247;1276;22464;-58
2022/11/05 03:47:34;;;;;;;2.30;0.80;;;;;;;8.48;100.00;99654.87;103271;1303;25334;-60
2022/11/05 03:50:14;;;;;;;2.50;0.90;;;;;;;8.47;100.00;99652.95;103378;1271;25692;-60
2022/11/05 03:52:52;;;;;;;2.60;0.90;;;;;;;8.46;100.00;99662.05;103442;1271;22641;-59
2022/11/05 03:55:29;;;;;;;3.00;0.70;;;;;;;8.44;100.00;99661.11;103411;1278;22470;-58
2022/11/05 03:58:03;;;;;;;2.30;0.70;;;;;;;8.44;100.00;99660.36;103380;1271;22555;-60
2022/11/05 04:00:35;;;;;;;2.60;0.70;;;;;;;8.42;100.00;99662.19;103304;1278;25305;-59
2022/11/05 04:03:06;;;;;;;3.20;0.60;;;;;;;8.41;100.00;99666.38;103306;1278;25264;-60
2022/11/05 04:05:39;;;;;;;2.20;0.50;;;;;;;8.40;100.00;99671.36;103299;1302;22467;-61
2022/11/05 04:13:50;;;;;;;3.50;0.60;;;;;;;8.36;100.00;99710.48;102834;1284;24456;-61
2022/11/05 04:19:11;;;;;;;4.10;0.60;;;;;;;8.34;100.00;99709.58;102936;1299;22459;-60
2022/11/05 04:24:31;;;;;;;1.70;0.50;;;;;;;8.32;100.00;99717.54;102924;1306;24455;-59
2022/11/05 04:27:03;;;;;;;2.70;0.50;;;;;;;8.32;100.00;99713.13;103035;1299;23227;-59
2022/11/05 04:32:23;;;;;;;3.20;0.40;;;;;;;8.31;100.00;99716.13;102929;1277;24086;-60
2022/11/05 04:34:55;;;;;;;2.00;0.50;;;;;;;8.29;100.00;99713.23;103056;1284;25289;-60
2022/11/05 04:37:27;;;;;;;2.00;0.40;;;;;;;8.29;100.00;99711.20;102997;1277;22565;-60
2022/11/05 04:39:58;;;;;;;1.60;0.50;;;;;;;8.29;100.00;99714.87;102883;1299;27610;-61
2022/11/05 04:42:31;;;;;;;1.20;0.30;;;;;;;8.28;100.00;99717.29;102930;1284;25479;-60
2022/11/05 04:45:02;;;;;;;2.10;0.50;;;;;;;8.28;100.00;99715.48;102956;1306;22558;-59
2022/11/05 04:47:35;;;;;;;1.90;0.60;;;;;;;8.28;100.00;99720.31;103071;1291;25918;-61
2022/11/05 04:50:08;;;;;;;3.40;0.80;;;;;;;8.27;100.00;99725.69;103414;1302;24320;-60
2022/11/05 04:52:40;;;;;;;2.40;0.50;;;;;;;8.26;100.00;99728.73;103311;1278;25319;-64
2022/11/05 04:55:12;;;;;;;1.90;0.50;;;;;;;8.26;100.00;99728.83;103586;1301;25439;-66
2022/11/05 04:57:43;;;;;;;3.20;0.60;;;;;;;8.26;100.00;99731.55;103493;1300;25262;-59
2022/11/05 05:00:16;;;;;;;2.00;0.50;;;;;;;8.26;100.00;99734.14;103581;1303;25384;-59
2022/11/05 05:02:49;;;;;;;2.20;0.60;;;;;;;8.26;100.00;99742.58;103387;1303;25457;-60
2022/11/05 05:05:21;;;;;;;3.00;0.70;;;;;;;8.25;100.00;99744.59;103267;1278;24238;-59
2022/11/05 05:07:53;;;;;;;3.10;0.60;;;;;;;8.25;100.00;99741.19;103382;1278;22506;-61
2022/11/05 05:10:26;;;;;;;2.20;0.60;;;;;;;8.25;100.00;99740.56;103225;1276;24016;-58
2022/11/05 05:12:57;;;;;;;2.20;0.70;;;;;;;8.25;100.00;99747.15;103356;1303;24914;-61
2022/11/05 05:15:29;;;;;;;2.40;0.70;;;;;;;8.24;100.00;99751.46;103346;1271;24901;-59
2022/11/05 05:18:00;;;;;;;2.50;0.70;;;;;;;8.23;100.00;99756.66;103295;1304;22487;-60
2022/11/05 05:23:22;;;;;;;1.80;0.50;;;;;;;8.21;100.00;99765.98;103147;1289;22468;-60
2022/11/05 05:25:54;;;;;;;3.70;0.70;;;;;;;8.21;100.00;99763.53;103241;1297;22464;-62
2022/11/05 05:28:26;;;;;;;3.80;0.80;;;;;;;8.21;100.00;99761.41;103220;1288;25340;-60
2022/11/05 05:31:00;;;;;;;2.30;0.60;;;;;;;8.20;100.00;99762.86;103339;1274;25238;-60
2022/11/05 05:33:32;;;;;;;1.50;0.50;;;;;;;8.19;100.00;99758.60;103286;1280;22463;-60
2022/11/05 05:36:03;;;;;;;3.10;0.80;;;;;;;8.19;100.00;99752.03;103551;1302;22560;-63
2022/11/05 05:38:35;;;;;;;3.30;0.90;;;;;;;8.19;100.00;99752.08;103295;1288;22474;-61
2022/11/05 05:41:06;;;;;;;3.50;0.70;;;;;;;8.19;100.00;99748.70;103295;1281;23989;-60
2022/11/05 05:43:38;;;;;;;4.00;0.90;;;;;;;8.19;100.00;99755.46;103194;1291;22484;-61
2022/11/05 05:46:13;;;;;;;4.60;1.20;;;;;;;8.19;100.00;99764.62;103211;1280;22507;-58
2022/11/05 05:48:51;;;;;;;4.50;1.00;;;;;;;8.20;100.00;99772.97;103208;1281;22593;-60
2022/11/05 05:51:23;;;;;;;4.80;0.80;;;;;;;8.20;100.00;99780.57;103268;1274;26192;-61
2022/11/05 05:53:57;;;;;;;3.90;1.70;;;;;;;8.22;100.00;99790.76;103349;1281;25533;-61
2022/11/05 05:56:29;;;;;;;5.20;1.10;;;;;;;8.23;100.00;99798.17;103086;1281;22471;-60
2022/11/05 05:59:00;;;;;;;3.60;0.90;;;;;;;8.24;100.00;99804.86;103144;1281;22838;-60
2022/11/05 06:01:32;;;;;;;3.10;1.00;;;;;;;8.25;100.00;99814.52;103282;1278;22460;-59
2022/11/05 06:04:04;;;;;;;2.80;0.80;;;;;;;8.25;100.00;99816.35;103243;1281;22454;-61
2022/11/05 06:06:35;;;;;;;4.20;1.00;;;;;;;8.26;100.00;99819.39;103119;1274;22462;-59
2022/11/05 06:09:07;;;;;;;4.00;0.90;;;;;;;8.27;100.00;99826.99;103316;1281;22469;-61
2022/11/05 06:11:38;;;;;;;4.00;1.20;;;;;;;8.28;100.00;99829.34;103267;1305;22472;-61
2022/11/05 06:14:11;;;;;;;6.20;1.10;;;;;;;8.28;100.00;99836.86;103169;1281;22467;-61
2022/11/05 06:16:43;;;;;;;4.30;1.10;;;;;;;8.29;100.00;99845.73;103111;1291;25415;-61
2022/11/05 06:19:15;;;;;;;4.30;1.00;;;;;;;8.29;100.00;99852.38;103929;1278;22526;-62
2022/11/05 06:21:46;;;;;;;4.10;1.50;;;;;;;8.30;100.00;99859.16;103216;1279;22584;-60
2022/11/05 06:24:18;;;;;;;5.20;1.20;;;;;;;8.30;100.00;99862.56;103425;1278;22478;-60
2022/11/05 06:26:49;;;;;;;4.10;1.10;;;;;;;8.32;100.00;99870.64;103368;1278;22629;-61
2022/11/05 06:29:21;;;;;;;5.70;1.20;;;;;;;8.32;100.00;99878.77;103385;1271;22464;-61
2022/11/05 06:31:53;;;;;;;4.90;1.30;;;;;;;8.33;100.00;99878.95;103261;1271;22455;-60
2022/11/05 06:34:26;;;;;;;4.00;1.00;;;;;;;8.34;100.00;99885.60;103383;1271;22454;-61
2022/11/05 06:36:57;;;;;;;4.10;1.20;;;;;;;8.35;100.00;99887.14;103131;1278;25218;-60
2022/11/05 06:39:29;;;;;;;3.30;0.90;;;;;;;8.36;100.00;99891.21;103131;1279;23326;-59
2022/11/05 06:42:01;;;;;;;6.20;2.00;;;;;;;8.37;100.00;99901.60;103447;1302;22446;-61
2022/11/05 06:44:33;;;;;;;4.60;1.10;;;;;;;8.38;100.00;99902.88;103544;1278;22610;-60
2022/11/05 06:47:04;;;;;;;3.50;1.30;;;;;;;8.39;100.00;99904.89;103354;1278;23778;-60
2022/11/05 06:49:35;;;;;;;5.80;1.40;;;;;;;8.40;100.00;99909.45;103312;1275;22580;-61
2022/11/05 06:52:07;;;;;;;5.40;1.30;;;;;;;8.41;100.00;99920.66;103444;1278;25373;-60
2022/11/05 06:54:39;;;;;;;5.70;1.50;;;;;;;8.43;100.00;99924.64;103223;1271;22517;-61
2022/11/05 06:57:12;;;;;;;3.80;1.10;;;;;;;8.44;100.00;99924.67;103399;1278;24573;-60
2022/11/05 06:59:43;;;;;;;5.60;1.40;;;;;;;8.45;100.00;99923.06;103155;1271;23526;-61
2022/11/05 07:02:16;;;;;;;4.00;1.20;;;;;;;8.45;100.00;99926.36;103292;1279;22464;-61
2022/11/05 07:04:48;;;;;;;4.70;1.50;;;;;;;8.47;100.00;99933.36;103237;1278;25317;-60
2022/11/05 07:07:19;;;;;;;6.10;1.50;;;;;;;8.47;100.00;99934.05;103503;1271;22500;-60
2022/11/05 07:09:54;;;;;;;6.10;1.70;;;;;;;8.48;100.00;99936.70;103583;1271;24373;-60
2022/11/05 07:12:25;;;;;;;6.00;1.30;;;;;;;8.49;100.00;99938.43;103310;1271;23168;-60
2022/11/05 07:14:57;;;;;;;6.20;1.70;;;;;;;8.49;100.00;99936.98;104050;1273;25353;-60
2022/11/05 07:17:32;;;;;;;4.20;1.30;;;;;;;8.49;100.00;99940.48;103415;1264;22996;-57
2022/11/05 07:20:04;;;;;;;9.10;1.60;;;;;;;8.51;100.00;99944.70;103266;1272;22470;-61
2022/11/05 07:22:36;;;;;;;5.10;1.50;;;;;;;8.52;100.00;99947.91;103375;1271;25323;-58
2022/11/05 07:25:09;;;;;;;4.70;1.50;;;;;;;8.53;100.00;99958.44;103738;1279;24256;-57
2022/11/05 07:27:44;;;;;;;4.20;1.20;;;;;;;8.53;100.00;99962.45;103514;1285;22445;-59
2022/11/05 07:30:16;;;;;;;6.60;1.90;;;;;;;8.54;100.00;99971.29;103523;1278;23019;-57
2022/11/05 07:32:47;;;;;;;4.40;1.20;;;;;;;8.56;100.00;99973.54;103175;1302;22470;-59
2022/11/05 07:35:19;;;;;;;4.30;1.00;;;;;;;8.57;100.00;99981.77;103358;1276;22830;-59
2022/11/05 07:37:52;;;;;;;4.70;1.30;;;;;;;8.57;100.00;99986.88;103390;1294;24319;-59
2022/11/05 07:40:26;;;;;;;3.90;1.20;;;;;;;8.58;100.00;99991.30;103600;1278;22467;-58
2022/11/05 07:42:59;;;;;;;4.70;1.30;;;;;;;8.59;100.00;99999.06;103624;1278;22469;-57
2022/11/05 07:45:32;;;;;;;4.30;1.30;;;;;;;8.60;100.00;100005.52;103713;1271;22460;-57
2022/11/05 07:48:04;;;;;;;7.70;1.40;;;;;;;8.60;100.00;100011.55;103534;1296;25458;-59
2022/11/05 07:50:37;;;;;;;5.20;1.20;;;;;;;8.62;100.00;100018.55;103558;1296;24213;-58
2022/11/05 07:53:11;;;;;;;6.90;1.50;;;;;;;8.63;100.00;100024.95;103274;1271;24314;-58
2022/11/05 07:55:44;;;;;;;4.40;1.20;;;;;;;8.64;100.00;100026.09;103263;1271;24266;-59
2022/11/05 07:58:16;;;;;;;3.30;1.20;;;;;;;8.65;100.00;100021.11;103250;1278;24434;-56
2022/11/05 08:00:49;;;;;;;4.90;1.20;;;;;;;8.66;100.00;100024.38;103220;1278;24410;-59
2022/11/05 08:03:22;;;;;;;5.20;1.40;;;;;;;8.68;100.00;100020.13;103259;1274;24415;-58
2022/11/05 08:05:53;;;;;;;6.00;1.20;;;;;;;8.71;100.00;100019.88;103224;1302;24263;-59
2022/11/05 08:08:24;;;;;;;4.60;1.20;;;;;;;8.73;100.00;100027.88;103348;1277;22613;-59
2022/11/05 08:11:01;;;;;;;4.80;1.40;;;;;;;8.76;100.00;100026.83;103310;1273;22470;-57
2022/11/05 08:13:33;;;;;;;5.10;1.20;;;;;;;8.79;100.00;100022.48;103801;1271;24264;-60
2022/11/05 08:16:07;;;;;;;4.40;1.20;;;;;;;8.81;100.00;100022.91;103281;1278;24003;-59
2022/11/05 08:18:39;;;;;;;6.90;1.20;;;;;;;8.85;100.00;100030.59;103220;1278;25328;-58
2022/11/05 08:21:11;;;;;;;6.30;1.10;;;;;;;8.89;100.00;100037.84;103256;1278;25334;-59
2022/11/05 08:23:42;;;;;;;4.20;1.00;;;;;;;8.91;100.00;100038.56;103459;1301;23832;-59
2022/11/05 08:26:14;;;;;;;3.90;1.00;;;;;;;8.94;100.00;100044.39;103745;1301;25201;-58
2022/11/05 08:28:45;;;;;;;3.70;1.10;;;;;;;8.97;100.00;100047.59;103332;1301;22471;-59
2022/11/05 08:31:17;;;;;;;5.00;1.30;;;;;;;9.00;100.00;100049.98;103226;1281;22687;-59
2022/11/05 08:33:48;;;;;;;5.90;1.20;;;;;;;9.02;100.00;100054.20;103213;1279;23210;-56
2022/11/05 08:36:19;;;;;;;5.40;1.40;;;;;;;9.05;100.00;100056.46;103133;1288;25207;-57
2022/11/05 08:38:51;;;;;;;5.20;1.30;;;;;;;9.07;100.00;100057.29;103345;1269;23901;-59
2022/11/05 08:41:23;;;;;;;3.30;0.90;;;;;;;9.09;100.00;100060.52;103797;1278;22509;-59
2022/11/05 08:43:56;;;;;;;6.10;1.50;;;;;;;9.11;100.00;100063.08;103211;1271;22471;-61
2022/11/05 08:46:27;;;;;;;3.90;1.00;;;;;;;9.12;100.00;100067.92;103187;1295;24423;-59
2022/11/05 08:48:59;;;;;;;4.00;1.00;;;;;;;9.14;100.00;100079.61;103216;1294;22635;-59
2022/11/05 08:51:31;;;;;;;5.90;1.00;;;;;;;9.15;100.00;100089.04;103339;1296;24275;-64
2022/11/05 08:54:02;;;;;;;4.70;1.10;;;;;;;9.17;100.00;100094.98;103215;1296;26701;-64
2022/11/05 08:56:34;;;;;;;5.00;1.00;;;;;;;9.20;100.00;100096.60;103307;1285;24314;-63
2022/11/05 08:59:06;;;;;;;6.10;1.00;;;;;;;9.22;100.00;100102.95;103136;1279;25298;-61
2022/11/05 09:01:37;;;;;;;4.80;1.60;;;;;;;9.24;100.00;100105.55;103179;1303;22480;-60
2022/11/05 09:04:09;;;;;;;6.40;1.10;;;;;;;9.27;100.00;100104.70;103183;1278;22536;-66
2022/11/05 09:06:40;;;;;;;3.80;0.80;;;;;;;9.28;100.00;100106.20;103181;1301;22465;-61
2022/11/05 09:09:12;;;;;;;6.20;1.40;;;;;;;9.30;100.00;100106.80;102544;1278;47828;-60
2022/11/05 09:11:44;;;;;;;4.60;1.00;;;;;;;9.34;100.00;100111.74;103600;1277;22472;-64
2022/11/05 09:14:15;;;;;;;5.20;1.00;;;;;;;9.37;100.00;100120.42;103910;1274;23820;-63
2022/11/05 09:16:47;;;;;;;5.70;1.00;;;;;;;9.40;100.00;100126.02;103030;1277;25114;-61
2022/11/05 09:19:19;;;;;;;5.70;1.00;;;;;;;9.41;100.00;100127.11;103178;1281;22753;-60
2022/11/05 09:21:50;;;;;;;6.30;1.00;;;;;;;9.44;100.00;100131.77;102927;1291;22511;-63
2022/11/05 09:24:22;;;;;;;9.10;1.40;;;;;;;9.47;100.00;100133.46;102988;1280;23087;-62
2022/11/05 09:26:54;;;;;;;6.60;1.20;;;;;;;9.49;100.00;100137.06;102971;1305;22489;-60
2022/11/05 09:29:25;;;;;;;3.60;1.00;;;;;;;9.53;100.00;100139.73;102945;1273;22499;-62
2022/11/05 09:31:57;;;;;;;4.80;1.30;;;;;;;9.56;100.00;100147.80;103378;1280;23801;-62
2022/11/05 09:34:28;;;;;;;4.80;1.10;;;;;;;9.58;100.00;100153.62;103634;1280;25478;-61
2022/11/05 09:37:00;;;;;;;5.20;1.00;;;;;;;9.60;100.00;100156.45;103345;1283;25329;-61
2022/11/05 09:39:31;;;;;;;4.20;0.80;;;;;;;9.61;100.00;100156.13;105618;1300;24265;-61
2022/11/05 09:42:07;;;;;;;4.40;0.90;;;;;;;9.63;100.00;100157.63;103363;1300;24823;-62
2022/11/05 09:44:45;;;;;;;5.60;1.00;;;;;;;9.64;100.00;100156.39;103351;1296;24403;-62
2022/11/05 09:47:23;;;;;;;5.40;0.70;;;;;;;9.67;100.00;100160.30;103052;1281;22473;-62
2022/11/05 09:49:59;;;;;;;4.90;0.70;;;;;;;9.68;100.00;100163.97;103197;1281;25257;-62
2022/11/05 09:52:33;;;;;;;8.20;1.10;;;;;;;9.68;99.98;100161.78;103233;1285;22462;-62
2022/11/05 09:55:14;;;;;;;7.70;1.00;;;;;;;9.68;100.00;100159.66;103360;1281;22488;-64
2022/11/05 09:57:51;;;;;;;4.30;0.90;;;;;;;9.69;100.00;100159.07;103034;1281;23273;-63
2022/11/05 10:00:23;;;;;;;3.60;0.60;;;;;;;9.70;99.98;100155.91;104055;1281;24168;-59
2022/11/05 10:02:57;;;;;;;5.60;0.70;;;;;;;9.72;100.00;100159.33;103281;1304;22457;-60
2022/11/05 10:05:30;;;;;;;5.00;1.00;;;;;;;9.73;99.96;100159.58;103226;1283;25330;-61
2022/11/05 10:08:05;;;;;;;5.20;0.80;;;;;;;9.74;99.77;100159.93;103201;1287;22502;-59
2022/11/05 10:10:42;;;;;;;5.90;0.80;;;;;;;9.76;99.91;100161.66;102983;1284;22515;-60
2022/11/05 10:13:22;;;;;;;9.60;0.80;;;;;;;9.78;100.00;100161.49;103007;1304;25399;-59
2022/11/05 10:16:01;;;;;;;2.70;0.70;;;;;;;9.80;99.78;100161.39;102986;1293;22479;-60
2022/11/05 10:18:39;;;;;;;6.60;0.70;;;;;;;9.79;99.29;100166.99;103040;1297;25512;-58
2022/11/05 10:21:16;;;;;;;4.10;0.70;;;;;;;9.80;99.56;100176.17;102952;1281;22475;-58
2022/11/05 10:23:48;;;;;;;4.70;0.60;;;;;;;9.80;98.62;100182.48;103050;1306;24446;-60
2022/11/05 10:26:25;;;;;;;7.00;0.80;;;;;;;9.81;99.28;100187.77;103406;1280;22514;-59
2022/11/05 10:28:58;;;;;;;3.70;0.90;;;;;;;9.84;98.95;100183.52;103024;1280;22513;-59
2022/11/05 10:31:34;;;;;;;3.70;1.00;;;;;;;9.87;98.96;100182.09;102849;1282;334881;-61
2022/11/05 10:34:10;;;;;;;6.10;1.50;;;;;;;9.89;98.72;100185.89;103331;1302;24312;-60
2022/11/05 10:36:41;;;;;;;7.20;0.80;;;;;;;9.89;97.96;100187.37;103073;1284;24418;-60
2022/11/05 10:39:16;;;;;;;4.30;0.80;;;;;;;9.90;98.32;100183.42;103257;1283;22466;-58
2022/11/05 10:42:02;;;;;;;9.10;1.10;;;;;;;9.93;98.61;100184.61;103230;1306;26551;-59
2022/11/05 10:44:41;;;;;;;5.20;0.70;;;;;;;9.98;98.61;100191.65;103285;1281;25388;-59
2022/11/05 10:47:41;;;;;;;5.90;0.60;;;;;;;10.02;98.17;100199.89;103126;1305;25568;-60
2022/11/05 10:50:16;;;;;;;7.30;1.00;;;;;;;10.02;97.00;100203.30;103127;1304;22465;-60
2022/11/05 10:52:57;;;;;;;4.30;0.80;;;;;;;10.00;97.05;100205.77;102986;1305;23226;-58
2022/11/05 10:55:40;;;;;;;7.30;0.90;;;;;;;9.98;97.30;100205.71;103192;1305;22612;-64
2022/11/05 10:58:21;;;;;;;15.10;5.20;;;;;;;10.01;97.93;100208.42;103257;1305;23910;-59
2022/11/05 11:01:11;;;;;;;7.20;1.60;;;;;;;10.04;97.74;100207.51;103091;1281;25454;-59
2022/11/05 11:03:46;;;;;;;5.10;1.10;;;;;;;10.09;98.34;100211.11;103258;1306;25302;-61
2022/11/05 11:06:27;;;;;;;9.30;2.50;;;;;;;10.13;97.21;100209.90;103282;1281;23887;-60
2022/11/05 11:09:01;;;;;;;8.90;1.80;;;;;;;10.17;98.04;100203.40;103048;1305;22490;-60
2022/11/05 11:11:39;;;;;;;6.40;1.50;;;;;;;10.24;97.61;100204.73;103381;1277;24228;-60
2022/11/05 11:14:21;;;;;;;13.10;3.60;;;;;;;10.26;96.26;100211.37;103192;1306;22469;-60
2022/11/05 11:16:56;;;;;;;8.70;1.70;;;;;;;10.26;96.45;100210.92;103220;1282;22462;-59
2022/11/05 11:19:29;;;;;;;7.30;1.40;;;;;;;10.26;97.11;100210.41;103286;1280;22476;-60
2022/11/05 11:22:20;;;;;;;8.60;1.10;;;;;;;10.30;97.30;100210.80;103166;1281;22596;-60
2022/11/05 11:24:53;;;;;;;6.00;1.10;;;;;;;10.34;97.66;100212.25;103309;1305;22471;-62
2022/11/05 11:27:28;;;;;;;10.90;2.10;;;;;;;10.38;97.24;100225.13;103031;1305;25268;-60
2022/11/05 11:30:02;;;;;;;9.50;1.30;;;;;;;10.39;96.37;100220.88;103162;1298;23929;-60
2022/11/05 11:32:39;;;;;;;7.20;1.20;;;;;;;10.40;95.96;100222.92;103181;1280;22478;-60
2022/11/05 11:35:22;;;;;;;6.50;1.00;;;;;;;10.39;95.32;100232.38;103080;1274;22498;-60
2022/11/05 11:37:59;;;;;;;7.90;1.20;;;;;;;10.38;94.52;100236.58;103150;1281;24373;-61
2022/11/05 11:40:35;;;;;;;13.90;3.10;;;;;;;10.37;94.99;100237.73;102886;1282;25394;-59
2022/11/05 11:43:15;;;;;;;9.00;1.70;;;;;;;10.39;95.16;100233.99;105401;1274;22483;-59
2022/11/05 11:45:52;;;;;;;9.10;1.60;;;;;;;10.40;95.12;100235.70;103091;1281;24465;-60
2022/11/05 11:48:28;;;;;;;12.20;1.80;;;;;;;10.42;94.48;100242.45;103329;1286;22520;-60
2022/11/05 11:51:15;;;;;;;10.20;1.40;;;;;;;10.43;95.38;100236.17;103137;1305;22559;-59
2022/11/05 11:53:49;;;;;;;11.20;1.30;;;;;;;10.47;95.17;100248.07;103130;1291;22595;-60
2022/11/05 11:56:22;;;;;;;9.80;1.60;;;;;;;10.48;94.20;100255.13;103168;1280;26573;-58
2022/11/05 11:58:56;;;;;;;7.60;1.30;;;;;;;10.47;93.81;100258.46;103357;1300;22567;-59
2022/11/05 12:01:54;;;;;;;7.40;1.10;;;;;;;10.46;93.46;100256.67;102970;1291;25409;-62
2022/11/05 12:04:48;;;;;;;7.70;1.60;;;;;;;10.48;93.90;100254.83;102964;1288;22466;-60
2022/11/05 12:07:47;;;;;;;7.10;1.30;;;;;;;10.49;94.18;100253.70;103200;1282;22486;-61
2022/11/05 12:10:41;;;;;;;7.40;1.10;;;;;;;10.52;93.94;100261.67;103411;1305;22428;-61
2022/11/05 12:13:43;;;;;;;8.30;1.60;;;;;;;10.53;93.18;100264.48;103152;1290;22464;-60
2022/11/05 12:16:22;;;;;;;66.80;8.70;;;;;;;10.56;94.47;100264.08;103076;1280;22499;-62
2022/11/05 12:18:59;;;;;;;16.60;1.90;;;;;;;10.59;94.30;100260.74;103172;1280;22470;-61
2022/11/05 12:21:39;;;;;;;19.20;1.90;;;;;;;10.62;93.53;100265.20;103279;1281;25360;-61
2022/11/05 12:24:47;;;;;;;6.00;1.40;;;;;;;10.64;93.75;100266.45;103279;1306;25510;-60
2022/11/05 12:27:33;;;;;;;15.20;1.50;;;;;;;10.68;93.70;100262.73;103282;1296;22555;-60
2022/11/05 12:30:10;;;;;;;27.60;3.30;;;;;;;10.71;93.66;100263.59;103228;1282;22469;-59
2022/11/05 12:33:07;;;;;;;7.90;1.50;;;;;;;10.73;93.16;100265.12;103342;1305;25268;-63
2022/11/05 12:35:54;;;;;;;12.80;1.30;;;;;;;10.76;92.22;100268.71;103186;1282;24296;-62
2022/11/05 12:38:46;;;;;;;10.40;1.70;;;;;;;10.78;92.47;100276.16;103154;1277;22609;-60
2022/11/05 12:41:24;;;;;;;7.30;1.30;;;;;;;10.79;92.01;100278.71;103100;1280;25286;-60
2022/11/05 12:44:24;;;;;;;9.30;1.90;;;;;;;10.79;92.33;100280.86;103225;1281;22460;-62